createdAt,value
2022-11-22T01:20:19.147Z,97953.56
2022-11-22T01:22:45.765Z,97957.03
2022-11-22T01:25:12.360Z,97945.25
2022-11-22T01:27:38.975Z,97941.81
2022-11-22T01:30:06.239Z,97938.31
2022-11-22T01:32:32.834Z,97935.88
2022-11-22T01:34:59.428Z,97940.16
2022-11-22T01:37:26.019Z,97941.59
2022-11-22T01:39:52.620Z,97935.91
2022-11-22T01:42:21.330Z,97931.22
2022-11-22T01:44:48.417Z,97932.25
2022-11-22T01:47:20.041Z,97933.03
2022-11-22T01:49:52.440Z,97923.88
2022-11-22T01:52:21.395Z,97919.84
2022-11-22T01:54:53.366Z,97904.19
2022-11-22T01:57:24.035Z,97915.97
2022-11-22T02:00:03.950Z,97910.09
2022-11-22T02:02:33.546Z,97907.44
2022-11-22T02:05:03.209Z,97904.19
2022-11-22T02:07:53.584Z,97899.06
2022-11-22T02:10:23.415Z,97906.41
2022-11-22T02:12:51.983Z,97896.03
2022-11-22T02:15:18.936Z,97901.16
2022-11-22T02:17:45.560Z,97899.09
2022-11-22T02:20:12.564Z,97889.75
2022-11-22T02:22:56.001Z,97893.78
2022-11-22T02:25:47.523Z,97888.91
2022-11-22T02:28:14.333Z,97885.03
2022-11-22T02:30:41.541Z,97883.63
2022-11-22T02:33:09.271Z,97887.88
2022-11-22T02:35:35.939Z,97884.81
2022-11-22T02:38:09.009Z,97878.31
2022-11-22T02:40:45.628Z,97881.16
2022-11-22T02:43:16.057Z,97874.66
2022-11-22T02:45:42.788Z,97871.41
2022-11-22T02:48:12.307Z,97859.63
2022-11-22T02:50:39.496Z,97864.97
2022-11-22T02:53:06.960Z,97865.97
2022-11-22T02:55:33.622Z,97858.88
2022-11-22T02:58:00.275Z,97852.38
2022-11-22T03:00:26.879Z,97838.53
2022-11-22T03:02:53.571Z,97836.53
2022-11-22T03:05:20.191Z,97834.13
2022-11-22T03:07:46.855Z,97837.97
2022-11-22T03:10:14.196Z,97839.78
2022-11-22T03:12:41.621Z,97821.69
2022-11-22T03:15:16.281Z,97826.16
2022-11-22T03:17:43.139Z,97826.22
2022-11-22T03:20:10.011Z,97832.69
2022-11-22T03:22:36.607Z,97830.25
2022-11-22T03:25:03.321Z,97825.78
2022-11-22T03:44:10.036Z,97806.47
2022-11-22T03:46:36.862Z,97795.97
2022-11-22T03:49:03.577Z,97787.44
2022-11-22T03:55:43.445Z,97795.97
2022-11-22T03:58:10.259Z,97782.16
2022-11-22T04:00:37.046Z,97778.88
2022-11-22T04:03:03.721Z,97780.94
2022-11-22T04:05:30.464Z,97790.03
2022-11-22T04:07:59.907Z,97785.16
2022-11-22T04:10:26.944Z,97781.84
2022-11-22T04:12:58.325Z,97778.56
2022-11-22T04:15:26.091Z,97780.59
2022-11-22T04:17:53.025Z,97777.56
2022-11-22T04:20:48.704Z,97777.91
2022-11-22T04:23:21.438Z,97782.09
2022-11-22T04:25:53.746Z,97782.91
2022-11-22T04:28:35.249Z,97783.47
2022-11-22T04:31:29.185Z,97785.91
2022-11-22T04:34:00.197Z,97778.44
2022-11-22T04:36:32.619Z,97782.28
2022-11-22T04:42:08.416Z,97783.09
2022-11-22T04:44:51.061Z,97780.66
2022-11-22T04:47:38.136Z,97785.28
2022-11-22T04:50:29.032Z,97777.75
2022-11-22T04:52:57.934Z,97777.19
2022-11-22T04:55:30.181Z,97775.56
2022-11-22T04:58:00.147Z,97780.19
2022-11-22T05:00:30.589Z,97770.09
2022-11-22T05:02:59.124Z,97769.09
2022-11-22T05:05:26.988Z,97769.69
2022-11-22T05:07:54.465Z,97764.88
2022-11-22T05:10:26.479Z,97767.69
2022-11-22T05:12:54.604Z,97762.22
2022-11-22T05:15:31.434Z,97767.25
2022-11-22T05:18:02.326Z,97767.44
2022-11-22T06:20:13.260Z,97773.38
2022-11-22T06:22:39.909Z,97785.13
2022-11-22T06:25:07.400Z,97805.88
2022-11-22T06:27:33.998Z,97814.34
2022-11-22T06:30:00.572Z,97801.50
2022-11-22T06:32:27.177Z,97795.03
2022-11-22T06:34:53.744Z,97792.94
2022-11-22T06:37:20.313Z,97801.81
2022-11-22T06:39:46.902Z,97800.22
2022-11-22T06:42:13.596Z,97806.22
2022-11-22T06:44:40.240Z,97796.22
2022-11-22T06:47:07.140Z,97803.03
2022-11-22T06:49:33.761Z,97799.34
2022-11-22T06:52:00.441Z,97801.09
2022-11-22T06:54:27.066Z,97799.44
2022-11-22T06:56:53.693Z,97795.13
2022-11-22T06:59:20.466Z,97791.97
2022-11-22T07:01:47.343Z,97791.13
2022-11-22T07:04:14.280Z,97795.81
2022-11-22T07:06:41.034Z,97791.50
2022-11-22T07:09:09.782Z,97801.28
2022-11-22T07:11:37.154Z,97802.09
2022-11-22T07:14:08.294Z,97789.66
2022-11-22T07:16:37.489Z,97803.13
2022-11-22T07:19:04.943Z,97808.81
2022-11-22T07:21:32.518Z,97809.38
2022-11-22T07:23:59.196Z,97809.06
2022-11-22T07:26:26.723Z,97818.38
2022-11-22T07:28:53.503Z,97816.16
2022-11-22T07:31:20.389Z,97817.25
2022-11-22T07:33:47.287Z,97825.50
2022-11-22T07:36:19.193Z,97822.97
2022-11-22T07:38:47.896Z,97824.16
2022-11-22T07:41:15.217Z,97823.63
2022-11-22T07:43:42.678Z,97831.25
2022-11-22T07:46:33.491Z,97835.22
2022-11-22T07:49:01.928Z,97824.81
2022-11-22T07:51:29.151Z,97835.25
2022-11-22T07:53:56.638Z,97841.63
2022-11-22T07:56:23.595Z,97841.19
2022-11-22T07:58:50.732Z,97840.84
2022-11-22T08:01:21.681Z,97833.56
2022-11-22T08:03:48.747Z,97840.16
2022-11-22T08:06:17.074Z,97841.66
2022-11-22T08:08:44.460Z,97862.47
2022-11-22T08:11:12.034Z,97848.31
2022-11-22T08:13:39.241Z,97852.22
2022-11-22T08:16:09.098Z,97857.31
2022-11-22T08:18:37.932Z,97860.44
2022-11-22T08:21:12.583Z,97861.97
2022-11-22T08:23:40.649Z,97858.94
2022-11-22T08:26:08.898Z,97865.88
2022-11-22T08:28:36.162Z,97875.72
2022-11-22T08:31:06.040Z,97867.25
2022-11-22T08:33:32.826Z,97878.34
2022-11-22T08:35:59.866Z,97876.38
2022-11-22T08:38:27.328Z,97880.31
2022-11-22T08:40:56.066Z,97884.69
2022-11-22T08:43:26.670Z,97887.94
2022-11-22T08:45:55.831Z,97886.53
2022-11-22T08:48:22.788Z,97896.81
2022-11-22T08:50:57.668Z,97897.41
2022-11-22T08:53:25.571Z,97899.56
2022-11-22T08:55:52.300Z,97899.13
2022-11-22T08:58:19.023Z,97908.81
2022-11-22T09:00:45.666Z,97914.41
2022-11-22T09:03:12.369Z,97915.44
2022-11-22T09:08:25.813Z,97922.63
2022-11-22T09:10:54.989Z,97916.28
2022-11-22T09:13:24.175Z,97911.09
2022-11-22T09:15:51.012Z,97917.91
2022-11-22T09:18:19.014Z,97916.28
2022-11-22T09:20:49.789Z,97913.25
2022-11-22T09:23:16.999Z,97924.00
2022-11-22T09:25:44.940Z,97927.16
2022-11-22T09:28:11.678Z,97926.00
2022-11-22T09:30:38.235Z,97928.31
2022-11-22T09:33:04.767Z,97930.38
2022-11-22T09:35:31.395Z,97926.00
2022-11-22T09:37:58.237Z,97932.91
2022-11-22T09:40:24.873Z,97936.97
2022-11-22T09:42:57.407Z,97927.53
2022-11-22T09:45:36.585Z,97931.56
2022-11-22T09:48:24.804Z,97928.88
2022-11-22T09:51:06.733Z,97931.34
2022-11-22T09:53:38.540Z,97919.06
2022-11-22T09:56:11.356Z,97923.31
2022-11-22T09:58:51.579Z,97929.06
2022-11-22T10:01:28.115Z,97929.06
2022-11-22T10:04:01.486Z,97921.88
2022-11-22T10:06:32.152Z,97924.16
2022-11-22T10:09:22.880Z,97911.28
2022-11-22T10:11:55.017Z,97915.22
2022-11-22T10:14:30.582Z,97915.59
2022-11-22T10:17:32.509Z,97914.94
2022-11-22T10:20:06.732Z,97922.50
2022-11-22T10:22:47.482Z,97911.84
2022-11-22T10:25:18.073Z,97916.56
2022-11-22T10:27:49.132Z,97911.59
2022-11-22T10:30:18.247Z,97919.38
2022-11-22T10:32:56.508Z,97923.66
2022-11-22T10:35:35.723Z,97919.59
2022-11-22T10:41:31.331Z,97921.00
2022-11-22T10:44:21.365Z,97932.91
2022-11-22T10:46:57.326Z,97923.88
2022-11-22T10:49:34.631Z,97933.94
2022-11-22T10:52:28.963Z,97934.31
2022-11-22T10:55:19.346Z,97925.59
2022-11-22T10:57:59.948Z,97925.78
2022-11-22T11:00:29.152Z,97930.75
2022-11-22T11:03:01.923Z,97927.41
2022-11-22T11:05:37.286Z,97914.00
2022-11-22T11:08:36.809Z,97908.66
2022-11-22T11:10:51.471Z,97897.59
2022-11-22T11:13:24.588Z,97904.06
2022-11-22T11:15:56.254Z,97897.41
2022-11-22T11:18:49.230Z,97897.59
2022-11-22T11:21:15.974Z,97899.81
2022-11-22T11:23:42.678Z,97908.00
2022-11-22T11:26:27.668Z,97912.94
2022-11-22T11:29:16.004Z,97911.09
2022-11-22T11:31:44.742Z,97908.53
2022-11-22T11:34:29.931Z,97903.22
2022-11-22T11:36:58.125Z,97907.09
2022-11-22T11:39:32.241Z,97906.88
2022-11-22T11:41:59.692Z,97892.44
2022-11-22T11:44:37.480Z,97884.22
2022-11-22T11:47:04.926Z,97896.56
2022-11-22T11:49:33.672Z,97905.31
2022-11-22T11:52:28.719Z,97902.81
2022-11-22T11:55:00.818Z,97900.53
2022-11-22T11:57:29.716Z,97898.75
2022-11-22T11:59:59.199Z,97895.09
2022-11-22T12:02:39.823Z,97896.41
2022-11-22T12:05:24.682Z,97900.94
2022-11-22T12:07:51.436Z,97898.75
2022-11-22T12:10:56.477Z,97902.22
2022-11-22T12:14:04.601Z,97904.53
2022-11-22T12:16:37.832Z,97902.16
2022-11-22T12:19:34.974Z,97895.84
2022-11-22T12:22:48.305Z,97909.50
2022-11-22T12:25:35.381Z,97918.63
2022-11-22T12:28:12.230Z,97910.88
2022-11-22T12:30:41.262Z,97914.47
2022-11-22T12:33:10.633Z,97912.06
2022-11-22T12:35:43.281Z,97912.44
2022-11-22T12:38:30.290Z,97911.56
2022-11-22T12:41:00.185Z,97910.91
2022-11-22T12:43:30.835Z,97915.38
2022-11-22T12:46:06.368Z,97919.31
2022-11-22T12:48:47.220Z,97922.38
2022-11-22T12:51:21.429Z,97925.41
2022-11-22T12:53:48.461Z,97926.06
2022-11-22T12:56:22.779Z,97931.97
2022-11-22T12:58:59.868Z,97934.44
2022-11-22T13:01:34.723Z,97939.00
2022-11-22T13:04:10.616Z,97937.22
2022-11-22T13:07:06.603Z,97938.22
2022-11-22T13:09:35.860Z,97935.56
2022-11-22T13:12:17.851Z,97932.63
2022-11-22T13:14:55.113Z,97936.25
2022-11-22T13:17:26.258Z,97935.19
2022-11-22T13:19:57.245Z,97929.78
2022-11-22T13:22:42.467Z,97943.28
2022-11-22T13:25:27.636Z,97940.25
2022-11-22T13:27:54.892Z,97934.94
2022-11-22T13:30:23.791Z,97932.88
2022-11-22T13:32:53.015Z,97922.59
2022-11-22T13:35:32.187Z,97937.41
2022-11-22T13:38:02.674Z,97934.03
2022-11-22T13:40:42.139Z,97933.44
2022-11-22T13:43:15.534Z,97935.69
2022-11-22T13:45:50.030Z,97927.59
2022-11-22T13:48:41.403Z,97926.78
2022-11-22T13:51:13.745Z,97922.25
2022-11-22T13:53:44.987Z,97931.66
2022-11-22T13:56:20.438Z,97934.47
2022-11-22T13:58:57.427Z,97942.25
2022-11-22T14:01:33.936Z,97943.53
2022-11-22T14:04:16.015Z,97947.13
2022-11-22T14:06:49.902Z,97947.75
2022-11-22T14:09:54.307Z,97951.81
2022-11-22T14:12:59.880Z,97953.94
2022-11-22T14:15:51.181Z,97956.97
2022-11-22T14:18:26.439Z,97952.34
2022-11-22T14:21:09.017Z,97956.38
2022-11-22T14:24:10.000Z,97956.28
2022-11-22T14:26:55.360Z,97958.47
2022-11-22T14:29:37.718Z,97963.56
2022-11-22T14:32:21.978Z,97965.41
2022-11-22T14:35:22.368Z,97956.16
2022-11-22T14:37:57.409Z,97963.31
2022-11-22T14:40:38.395Z,97963.56
2022-11-22T14:43:19.341Z,97963.72
2022-11-22T14:45:50.362Z,97966.03
2022-11-22T14:48:19.657Z,97966.97
2022-11-22T14:50:59.862Z,97961.88
2022-11-22T14:53:39.373Z,97970.38
2022-11-22T14:56:12.746Z,97963.09
2022-11-22T14:58:42.881Z,97954.66
2022-11-22T15:01:31.270Z,97967.13
2022-11-22T15:09:21.756Z,97976.19
2022-11-22T15:09:23.227Z,97972.97
2022-11-22T15:10:39.444Z,97978.81
2022-11-22T15:13:30.543Z,97974.28
2022-11-22T15:59:16.600Z,98008.00
2022-11-22T16:01:48.006Z,98013.25
2022-11-22T16:04:39.310Z,98008.44
2022-11-22T16:10:27.732Z,98001.06
2022-11-22T16:17:37.922Z,98006.16
2022-11-22T16:20:26.350Z,98002.69
2022-11-22T16:23:03.941Z,98008.66
2022-11-22T16:25:37.418Z,98001.88
